sensor_id;sensor_type;location;lat;lon;timestamp;temperature;humidity
46356;DHT22;32066;49.474;11.106;2023-01-01T00:00:13;14.70;99.90
46356;DHT22;32066;49.474;11.106;2023-01-01T00:02:40;14.70;99.90
46356;DHT22;32066;49.474;11.106;2023-01-01T00:05:07;14.70;99.90
46356;DHT22;32066;49.474;11.106;2023-01-01T00:07:34;14.70;99.90
46356;DHT22;32066;49.474;11.106;2023-01-01T00:10:01;14.70;99.90
46356;DHT22;32066;49.474;11.106;2023-01-01T00:12:45;14.70;99.90
46356;DHT22;32066;49.474;11.106;2023-01-01T00:15:13;14.70;99.90
46356;DHT22;32066;49.474;11.106;2023-01-01T00:17:40;14.70;99.90
46356;DHT22;32066;49.474;11.106;2023-01-01T00:20:08;14.70;99.90
46356;DHT22;32066;49.474;11.106;2023-01-01T00:22:35;14.70;99.90
46356;DHT22;32066;49.474;11.106;2023-01-01T00:25:03;14.70;99.90
46356;DHT22;32066;49.474;11.106;2023-01-01T00:27:30;14.60;99.90
46356;DHT22;32066;49.474;11.106;2023-01-01T00:29:57;14.60;99.90
46356;DHT22;32066;49.474;11.106;2023-01-01T00:32:25;14.60;99.80
46356;DHT22;32066;49.474;11.106;2023-01-01T00:34:52;14.60;99.80
46356;DHT22;32066;49.474;11.106;2023-01-01T00:37:19;14.60;99.80
46356;DHT22;32066;49.474;11.106;2023-01-01T00:39:46;14.60;99.90
46356;DHT22;32066;49.474;11.106;2023-01-01T00:42:12;14.60;99.90
46356;DHT22;32066;49.474;11.106;2023-01-01T00:44:39;14.60;99.90
46356;DHT22;32066;49.474;11.106;2023-01-01T00:47:06;14.60;99.90
46356;DHT22;32066;49.474;11.106;2023-01-01T00:49:34;14.50;99.90
46356;DHT22;32066;49.474;11.106;2023-01-01T00:52:01;14.50;99.80
46356;DHT22;32066;49.474;11.106;2023-01-01T00:54:28;14.50;99.80
46356;DHT22;32066;49.474;11.106;2023-01-01T00:56:55;14.50;99.80
46356;DHT22;32066;49.474;11.106;2023-01-01T00:59:22;14.50;99.90
46356;DHT22;32066;49.474;11.106;2023-01-01T01:01:49;14.60;99.90
46356;DHT22;32066;49.474;11.106;2023-01-01T01:04:16;14.60;99.90
46356;DHT22;32066;49.474;11.106;2023-01-01T01:06:44;14.60;99.90
46356;DHT22;32066;49.474;11.106;2023-01-01T01:09:11;14.60;99.90
46356;DHT22;32066;49.474;11.106;2023-01-01T01:11:38;14.60;99.90
46356;DHT22;32066;49.474;11.106;2023-01-01T01:14:05;14.60;99.90
46356;DHT22;32066;49.474;11.106;2023-01-01T01:16:33;14.60;99.90
46356;DHT22;32066;49.474;11.106;2023-01-01T01:19:02;14.50;99.90
46356;DHT22;32066;49.474;11.106;2023-01-01T01:21:33;14.50;99.90
46356;DHT22;32066;49.474;11.106;2023-01-01T01:24:02;14.60;99.90
46356;DHT22;32066;49.474;11.106;2023-01-01T01:26:31;14.60;99.90
46356;DHT22;32066;49.474;11.106;2023-01-01T01:28:58;14.50;99.90
46356;DHT22;32066;49.474;11.106;2023-01-01T01:31:28;14.50;99.90
46356;DHT22;32066;49.474;11.106;2023-01-01T01:33:55;14.50;99.90
46356;DHT22;32066;49.474;11.106;2023-01-01T01:36:23;14.60;99.90
46356;DHT22;32066;49.474;11.106;2023-01-01T01:38:50;14.50;99.90
46356;DHT22;32066;49.474;11.106;2023-01-01T01:41:20;14.50;99.90
46356;DHT22;32066;49.474;11.106;2023-01-01T01:43:56;14.50;99.90
46356;DHT22;32066;49.474;11.106;2023-01-01T01:46:30;14.50;99.90
46356;DHT22;32066;49.474;11.106;2023-01-01T01:49:02;14.50;99.90
46356;DHT22;32066;49.474;11.106;2023-01-01T01:51:32;14.50;99.90
46356;DHT22;32066;49.474;11.106;2023-01-01T01:54:02;14.50;99.90
46356;DHT22;32066;49.474;11.106;2023-01-01T01:56:39;14.50;99.90
46356;DHT22;32066;49.474;11.106;2023-01-01T01:59:08;14.50;99.90
46356;DHT22;32066;49.474;11.106;2023-01-01T02:01:35;14.50;99.90
46356;DHT22;32066;49.474;11.106;2023-01-01T02:04:03;14.50;99.90
46356;DHT22;32066;49.474;11.106;2023-01-01T02:06:32;14.40;99.90
46356;DHT22;32066;49.474;11.106;2023-01-01T02:09:03;14.40;99.90
46356;DHT22;32066;49.474;11.106;2023-01-01T02:11:31;14.40;99.90
46356;DHT22;32066;49.474;11.106;2023-01-01T02:13:59;14.40;99.90
46356;DHT22;32066;49.474;11.106;2023-01-01T02:16:32;14.40;99.90
46356;DHT22;32066;49.474;11.106;2023-01-01T02:19:06;14.30;99.90
46356;DHT22;32066;49.474;11.106;2023-01-01T02:21:43;14.30;99.90
46356;DHT22;32066;49.474;11.106;2023-01-01T02:24:28;14.40;99.90
46356;DHT22;32066;49.474;11.106;2023-01-01T02:27:03;14.30;99.90
46356;DHT22;32066;49.474;11.106;2023-01-01T02:29:38;14.30;99.70
46356;DHT22;32066;49.474;11.106;2023-01-01T02:32:08;14.30;99.90
46356;DHT22;32066;49.474;11.106;2023-01-01T02:34:39;14.30;99.90
46356;DHT22;32066;49.474;11.106;2023-01-01T02:37:09;14.30;99.90
46356;DHT22;32066;49.474;11.106;2023-01-01T02:39:41;14.40;99.90
46356;DHT22;32066;49.474;11.106;2023-01-01T02:42:10;14.30;99.90
46356;DHT22;32066;49.474;11.106;2023-01-01T02:44:41;14.30;99.90
46356;DHT22;32066;49.474;11.106;2023-01-01T02:47:11;14.30;99.60
46356;DHT22;32066;49.474;11.106;2023-01-01T02:49:44;14.30;99.70
46356;DHT22;32066;49.474;11.106;2023-01-01T02:52:20;14.30;99.60
46356;DHT22;32066;49.474;11.106;2023-01-01T02:54:54;14.30;99.60
46356;DHT22;32066;49.474;11.106;2023-01-01T02:57:31;14.30;99.50
46356;DHT22;32066;49.474;11.106;2023-01-01T03:00:04;14.30;99.50
46356;DHT22;32066;49.474;11.106;2023-01-01T03:03:09;14.30;99.40
46356;DHT22;32066;49.474;11.106;2023-01-01T03:05:44;14.30;99.60
46356;DHT22;32066;49.474;11.106;2023-01-01T03:08:42;14.30;99.50
46356;DHT22;32066;49.474;11.106;2023-01-01T03:11:14;14.30;99.60
46356;DHT22;32066;49.474;11.106;2023-01-01T03:13:48;14.30;99.60
46356;DHT22;32066;49.474;11.106;2023-01-01T03:16:23;14.30;99.60
46356;DHT22;32066;49.474;11.106;2023-01-01T03:18:57;14.30;99.60
46356;DHT22;32066;49.474;11.106;2023-01-01T03:21:45;14.30;99.60
46356;DHT22;32066;49.474;11.106;2023-01-01T03:24:18;14.30;99.50
46356;DHT22;32066;49.474;11.106;2023-01-01T03:26:49;14.30;99.60
46356;DHT22;32066;49.474;11.106;2023-01-01T03:29:17;14.30;99.50
46356;DHT22;32066;49.474;11.106;2023-01-01T03:31:47;14.30;99.50
46356;DHT22;32066;49.474;11.106;2023-01-01T03:34:22;14.30;99.50
46356;DHT22;32066;49.474;11.106;2023-01-01T03:36:53;14.30;99.40
46356;DHT22;32066;49.474;11.106;2023-01-01T03:39:24;14.30;99.40
46356;DHT22;32066;49.474;11.106;2023-01-01T03:41:57;14.20;99.50
46356;DHT22;32066;49.474;11.106;2023-01-01T03:44:29;14.30;99.40
46356;DHT22;32066;49.474;11.106;2023-01-01T03:46:59;14.30;99.50
46356;DHT22;32066;49.474;11.106;2023-01-01T03:49:27;14.30;99.50
46356;DHT22;32066;49.474;11.106;2023-01-01T03:52:03;14.30;99.50
46356;DHT22;32066;49.474;11.106;2023-01-01T03:54:40;14.30;99.50
46356;DHT22;32066;49.474;11.106;2023-01-01T03:57:15;14.30;99.60
46356;DHT22;32066;49.474;11.106;2023-01-01T03:59:51;14.30;99.60
46356;DHT22;32066;49.474;11.106;2023-01-01T04:02:26;14.30;99.40
46356;DHT22;32066;49.474;11.106;2023-01-01T04:04:54;14.20;99.20
46356;DHT22;32066;49.474;11.106;2023-01-01T04:07:23;14.20;99.30
46356;DHT22;32066;49.474;11.106;2023-01-01T04:09:51;14.20;99.20
46356;DHT22;32066;49.474;11.106;2023-01-01T04:12:19;14.20;99.30
46356;DHT22;32066;49.474;11.106;2023-01-01T04:14:47;14.20;99.40
46356;DHT22;32066;49.474;11.106;2023-01-01T04:17:13;14.20;99.40
46356;DHT22;32066;49.474;11.106;2023-01-01T04:19:44;14.20;99.40
46356;DHT22;32066;49.474;11.106;2023-01-01T04:22:11;14.20;99.40
46356;DHT22;32066;49.474;11.106;2023-01-01T04:24:38;14.20;99.30
46356;DHT22;32066;49.474;11.106;2023-01-01T04:27:05;14.20;99.30
46356;DHT22;32066;49.474;11.106;2023-01-01T04:29:31;14.20;99.30
46356;DHT22;32066;49.474;11.106;2023-01-01T04:31:59;14.20;99.30
46356;DHT22;32066;49.474;11.106;2023-01-01T04:34:25;14.20;99.30
46356;DHT22;32066;49.474;11.106;2023-01-01T04:36:53;14.20;99.40
46356;DHT22;32066;49.474;11.106;2023-01-01T04:39:20;14.20;99.30
46356;DHT22;32066;49.474;11.106;2023-01-01T04:41:47;14.20;99.30
46356;DHT22;32066;49.474;11.106;2023-01-01T04:44:14;14.20;99.40
46356;DHT22;32066;49.474;11.106;2023-01-01T04:46:41;14.20;99.30
46356;DHT22;32066;49.474;11.106;2023-01-01T04:49:08;14.20;99.30
46356;DHT22;32066;49.474;11.106;2023-01-01T04:51:34;14.20;99.30
46356;DHT22;32066;49.474;11.106;2023-01-01T04:54:03;14.20;99.30
46356;DHT22;32066;49.474;11.106;2023-01-01T04:56:30;14.20;99.40
46356;DHT22;32066;49.474;11.106;2023-01-01T04:58:57;14.20;99.30
46356;DHT22;32066;49.474;11.106;2023-01-01T05:01:25;14.10;99.40
46356;DHT22;32066;49.474;11.106;2023-01-01T05:03:53;14.20;99.50
46356;DHT22;32066;49.474;11.106;2023-01-01T05:06:21;14.10;99.40
46356;DHT22;32066;49.474;11.106;2023-01-01T05:08:49;14.10;99.40
46356;DHT22;32066;49.474;11.106;2023-01-01T05:11:19;14.10;99.40
46356;DHT22;32066;49.474;11.106;2023-01-01T05:13:49;14.10;99.40
46356;DHT22;32066;49.474;11.106;2023-01-01T05:16:19;14.10;99.40
46356;DHT22;32066;49.474;11.106;2023-01-01T05:18:47;14.10;99.50
46356;DHT22;32066;49.474;11.106;2023-01-01T05:21:15;14.10;99.50
46356;DHT22;32066;49.474;11.106;2023-01-01T05:23:42;14.10;99.50
46356;DHT22;32066;49.474;11.106;2023-01-01T05:26:10;14.10;99.40
46356;DHT22;32066;49.474;11.106;2023-01-01T05:28:38;14.10;99.50
46356;DHT22;32066;49.474;11.106;2023-01-01T05:31:07;14.10;99.40
46356;DHT22;32066;49.474;11.106;2023-01-01T05:33:35;14.10;99.40
46356;DHT22;32066;49.474;11.106;2023-01-01T05:36:02;14.00;99.40
46356;DHT22;32066;49.474;11.106;2023-01-01T05:38:29;14.00;99.40
46356;DHT22;32066;49.474;11.106;2023-01-01T05:40:56;14.00;99.30
46356;DHT22;32066;49.474;11.106;2023-01-01T05:43:23;14.00;99.40
46356;DHT22;32066;49.474;11.106;2023-01-01T05:46:00;14.00;99.30
46356;DHT22;32066;49.474;11.106;2023-01-01T05:48:27;14.00;99.30
46356;DHT22;32066;49.474;11.106;2023-01-01T05:51:00;14.00;99.20
46356;DHT22;32066;49.474;11.106;2023-01-01T05:53:28;13.90;99.40
46356;DHT22;32066;49.474;11.106;2023-01-01T05:55:55;13.90;99.40
46356;DHT22;32066;49.474;11.106;2023-01-01T05:58:22;13.90;99.20
46356;DHT22;32066;49.474;11.106;2023-01-01T06:00:49;13.90;99.20
46356;DHT22;32066;49.474;11.106;2023-01-01T06:03:17;13.90;99.20
46356;DHT22;32066;49.474;11.106;2023-01-01T06:05:44;13.90;99.30
46356;DHT22;32066;49.474;11.106;2023-01-01T06:08:11;13.90;99.20
46356;DHT22;32066;49.474;11.106;2023-01-01T06:10:38;13.90;99.10
46356;DHT22;32066;49.474;11.106;2023-01-01T06:13:05;13.90;99.10
46356;DHT22;32066;49.474;11.106;2023-01-01T06:15:32;13.80;99.00
46356;DHT22;32066;49.474;11.106;2023-01-01T06:18:00;13.90;99.10
46356;DHT22;32066;49.474;11.106;2023-01-01T06:20:28;13.80;98.90
46356;DHT22;32066;49.474;11.106;2023-01-01T06:22:55;13.80;99.10
46356;DHT22;32066;49.474;11.106;2023-01-01T06:25:22;13.80;99.00
46356;DHT22;32066;49.474;11.106;2023-01-01T06:27:49;13.90;99.10
46356;DHT22;32066;49.474;11.106;2023-01-01T06:30:15;13.90;99.10
46356;DHT22;32066;49.474;11.106;2023-01-01T06:32:42;13.80;99.10
46356;DHT22;32066;49.474;11.106;2023-01-01T06:35:09;13.80;99.20
46356;DHT22;32066;49.474;11.106;2023-01-01T06:37:37;13.80;99.10
46356;DHT22;32066;49.474;11.106;2023-01-01T06:40:05;13.80;99.10
46356;DHT22;32066;49.474;11.106;2023-01-01T06:42:32;13.80;99.00
46356;DHT22;32066;49.474;11.106;2023-01-01T06:44:59;13.80;99.00
46356;DHT22;32066;49.474;11.106;2023-01-01T06:47:26;13.80;99.00
46356;DHT22;32066;49.474;11.106;2023-01-01T06:49:53;13.80;99.00
46356;DHT22;32066;49.474;11.106;2023-01-01T06:52:19;13.80;98.90
46356;DHT22;32066;49.474;11.106;2023-01-01T06:54:48;13.80;99.40
46356;DHT22;32066;49.474;11.106;2023-01-01T06:57:14;13.80;99.00
46356;DHT22;32066;49.474;11.106;2023-01-01T06:59:41;13.80;99.10
46356;DHT22;32066;49.474;11.106;2023-01-01T07:02:09;13.80;99.10
46356;DHT22;32066;49.474;11.106;2023-01-01T07:04:37;13.70;98.90
46356;DHT22;32066;49.474;11.106;2023-01-01T07:07:04;13.80;98.90
46356;DHT22;32066;49.474;11.106;2023-01-01T07:09:31;13.70;99.00
46356;DHT22;32066;49.474;11.106;2023-01-01T07:11:59;13.70;99.00
46356;DHT22;32066;49.474;11.106;2023-01-01T07:14:26;13.70;99.10
46356;DHT22;32066;49.474;11.106;2023-01-01T07:16:53;13.70;98.90
46356;DHT22;32066;49.474;11.106;2023-01-01T07:19:19;13.70;98.90
46356;DHT22;32066;49.474;11.106;2023-01-01T07:21:51;13.70;98.90
46356;DHT22;32066;49.474;11.106;2023-01-01T07:24:19;13.70;98.90
46356;DHT22;32066;49.474;11.106;2023-01-01T07:26:48;13.70;98.90
46356;DHT22;32066;49.474;11.106;2023-01-01T07:29:17;13.70;98.80
46356;DHT22;32066;49.474;11.106;2023-01-01T07:31:43;13.80;98.90
46356;DHT22;32066;49.474;11.106;2023-01-01T07:34:13;13.80;98.70
46356;DHT22;32066;49.474;11.106;2023-01-01T07:36:41;13.80;99.30
46356;DHT22;32066;49.474;11.106;2023-01-01T07:39:08;13.80;98.90
46356;DHT22;32066;49.474;11.106;2023-01-01T07:41:35;13.80;98.80
46356;DHT22;32066;49.474;11.106;2023-01-01T07:44:02;13.80;98.90
46356;DHT22;32066;49.474;11.106;2023-01-01T07:46:33;13.80;98.70
46356;DHT22;32066;49.474;11.106;2023-01-01T07:49:00;13.80;98.60
46356;DHT22;32066;49.474;11.106;2023-01-01T07:51:27;13.90;98.60
46356;DHT22;32066;49.474;11.106;2023-01-01T07:53:53;13.90;98.70
46356;DHT22;32066;49.474;11.106;2023-01-01T07:56:20;13.80;98.60
46356;DHT22;32066;49.474;11.106;2023-01-01T07:58:47;13.90;98.60
46356;DHT22;32066;49.474;11.106;2023-01-01T08:01:14;13.90;98.60
46356;DHT22;32066;49.474;11.106;2023-01-01T08:03:42;13.90;98.60
46356;DHT22;32066;49.474;11.106;2023-01-01T08:06:11;14.00;98.70
46356;DHT22;32066;49.474;11.106;2023-01-01T08:08:38;14.00;98.70
46356;DHT22;32066;49.474;11.106;2023-01-01T08:11:05;14.10;98.60
46356;DHT22;32066;49.474;11.106;2023-01-01T08:13:32;14.10;98.50
46356;DHT22;32066;49.474;11.106;2023-01-01T08:15:59;14.20;98.50
46356;DHT22;32066;49.474;11.106;2023-01-01T08:18:26;14.30;98.60
46356;DHT22;32066;49.474;11.106;2023-01-01T08:20:54;14.40;98.60
46356;DHT22;32066;49.474;11.106;2023-01-01T08:23:22;14.50;98.60
46356;DHT22;32066;49.474;11.106;2023-01-01T08:25:48;14.60;98.40
46356;DHT22;32066;49.474;11.106;2023-01-01T08:28:15;14.70;98.40
46356;DHT22;32066;49.474;11.106;2023-01-01T08:30:42;14.80;98.30
46356;DHT22;32066;49.474;11.106;2023-01-01T08:33:10;14.80;98.10
46356;DHT22;32066;49.474;11.106;2023-01-01T08:35:40;14.90;98.00
46356;DHT22;32066;49.474;11.106;2023-01-01T08:38:10;15.00;98.00
46356;DHT22;32066;49.474;11.106;2023-01-01T08:40:37;15.10;97.90
46356;DHT22;32066;49.474;11.106;2023-01-01T08:43:04;15.10;97.90
46356;DHT22;32066;49.474;11.106;2023-01-01T08:45:31;15.20;97.80
46356;DHT22;32066;49.474;11.106;2023-01-01T08:47:58;15.30;97.80
46356;DHT22;32066;49.474;11.106;2023-01-01T08:50:25;15.30;97.90
46356;DHT22;32066;49.474;11.106;2023-01-01T08:52:51;15.40;97.90
46356;DHT22;32066;49.474;11.106;2023-01-01T08:55:20;15.40;97.80
46356;DHT22;32066;49.474;11.106;2023-01-01T08:57:46;15.40;97.80
46356;DHT22;32066;49.474;11.106;2023-01-01T09:00:14;15.50;97.80
46356;DHT22;32066;49.474;11.106;2023-01-01T09:02:41;15.50;97.80
46356;DHT22;32066;49.474;11.106;2023-01-01T09:05:08;15.50;97.80
46356;DHT22;32066;49.474;11.106;2023-01-01T09:07:35;15.50;97.70
46356;DHT22;32066;49.474;11.106;2023-01-01T09:10:03;15.50;97.70
46356;DHT22;32066;49.474;11.106;2023-01-01T09:12:31;15.50;97.80
46356;DHT22;32066;49.474;11.106;2023-01-01T09:14:58;15.50;97.70
46356;DHT22;32066;49.474;11.106;2023-01-01T09:17:25;15.50;97.60
46356;DHT22;32066;49.474;11.106;2023-01-01T09:19:52;15.50;97.60
46356;DHT22;32066;49.474;11.106;2023-01-01T09:22:18;15.50;97.70
46356;DHT22;32066;49.474;11.106;2023-01-01T09:24:46;15.50;97.70
46356;DHT22;32066;49.474;11.106;2023-01-01T09:27:13;15.50;97.60
46356;DHT22;32066;49.474;11.106;2023-01-01T09:29:41;15.50;97.60
46356;DHT22;32066;49.474;11.106;2023-01-01T09:32:08;15.50;97.70
46356;DHT22;32066;49.474;11.106;2023-01-01T09:34:35;15.50;97.60
46356;DHT22;32066;49.474;11.106;2023-01-01T09:37:01;15.60;97.70
46356;DHT22;32066;49.474;11.106;2023-01-01T09:39:28;15.50;97.70
46356;DHT22;32066;49.474;11.106;2023-01-01T09:42:17;15.60;97.80
46356;DHT22;32066;49.474;11.106;2023-01-01T09:44:56;15.60;97.80
46356;DHT22;32066;49.474;11.106;2023-01-01T09:47:30;15.60;97.80
46356;DHT22;32066;49.474;11.106;2023-01-01T09:50:02;15.70;97.80
46356;DHT22;32066;49.474;11.106;2023-01-01T09:52:36;15.70;97.80
46356;DHT22;32066;49.474;11.106;2023-01-01T09:55:13;15.70;97.70
46356;DHT22;32066;49.474;11.106;2023-01-01T09:57:41;15.80;97.70
46356;DHT22;32066;49.474;11.106;2023-01-01T10:00:14;15.90;97.70
46356;DHT22;32066;49.474;11.106;2023-01-01T10:02:57;15.90;97.60
46356;DHT22;32066;49.474;11.106;2023-01-01T10:05:33;16.00;97.40
46356;DHT22;32066;49.474;11.106;2023-01-01T10:08:06;16.10;97.30
46356;DHT22;32066;49.474;11.106;2023-01-01T10:10:38;16.10;97.20
46356;DHT22;32066;49.474;11.106;2023-01-01T10:13:13;16.20;97.10
46356;DHT22;32066;49.474;11.106;2023-01-01T10:15:52;16.20;97.00
46356;DHT22;32066;49.474;11.106;2023-01-01T10:18:22;16.30;97.10
46356;DHT22;32066;49.474;11.106;2023-01-01T10:20:57;16.30;97.00
46356;DHT22;32066;49.474;11.106;2023-01-01T10:23:27;16.40;97.00
46356;DHT22;32066;49.474;11.106;2023-01-01T10:25:57;16.40;96.90
46356;DHT22;32066;49.474;11.106;2023-01-01T10:28:29;16.40;96.90
46356;DHT22;32066;49.474;11.106;2023-01-01T10:31:13;16.50;96.80
46356;DHT22;32066;49.474;11.106;2023-01-01T10:33:40;16.50;96.60
46356;DHT22;32066;49.474;11.106;2023-01-01T10:36:08;16.50;96.50
46356;DHT22;32066;49.474;11.106;2023-01-01T10:38:37;16.50;96.40
46356;DHT22;32066;49.474;11.106;2023-01-01T10:41:07;16.50;96.50
46356;DHT22;32066;49.474;11.106;2023-01-01T10:43:34;16.50;96.50
46356;DHT22;32066;49.474;11.106;2023-01-01T10:46:04;16.50;96.50
46356;DHT22;32066;49.474;11.106;2023-01-01T10:48:33;16.50;96.40
46356;DHT22;32066;49.474;11.106;2023-01-01T10:51:02;16.60;96.40
46356;DHT22;32066;49.474;11.106;2023-01-01T10:53:31;16.60;96.30
46356;DHT22;32066;49.474;11.106;2023-01-01T10:56:07;16.60;96.20
46356;DHT22;32066;49.474;11.106;2023-01-01T10:58:39;16.60;96.20
46356;DHT22;32066;49.474;11.106;2023-01-01T11:01:09;16.60;96.30
46356;DHT22;32066;49.474;11.106;2023-01-01T11:03:36;16.60;96.20
46356;DHT22;32066;49.474;11.106;2023-01-01T11:06:06;16.60;96.30
46356;DHT22;32066;49.474;11.106;2023-01-01T11:08:38;16.60;96.20
46356;DHT22;32066;49.474;11.106;2023-01-01T11:11:06;16.60;96.20
46356;DHT22;32066;49.474;11.106;2023-01-01T11:13:48;16.70;96.20
46356;DHT22;32066;49.474;11.106;2023-01-01T11:16:16;16.70;96.20
46356;DHT22;32066;49.474;11.106;2023-01-01T11:18:43;16.70;96.50
46356;DHT22;32066;49.474;11.106;2023-01-01T11:21:18;16.70;96.20
46356;DHT22;32066;49.474;11.106;2023-01-01T11:23:46;16.70;96.20
46356;DHT22;32066;49.474;11.106;2023-01-01T11:26:20;16.70;96.20
46356;DHT22;32066;49.474;11.106;2023-01-01T11:29:00;16.70;96.20
46356;DHT22;32066;49.474;11.106;2023-01-01T11:31:29;16.80;96.20
46356;DHT22;32066;49.474;11.106;2023-01-01T11:34:01;16.80;96.20
46356;DHT22;32066;49.474;11.106;2023-01-01T11:36:30;16.80;96.10
46356;DHT22;32066;49.474;11.106;2023-01-01T11:39:19;16.80;96.10
46356;DHT22;32066;49.474;11.106;2023-01-01T11:41:50;16.80;96.10
46356;DHT22;32066;49.474;11.106;2023-01-01T11:44:28;16.80;96.10
46356;DHT22;32066;49.474;11.106;2023-01-01T11:46:59;16.80;96.20
46356;DHT22;32066;49.474;11.106;2023-01-01T11:49:28;16.90;96.10
46356;DHT22;32066;49.474;11.106;2023-01-01T11:51:55;16.90;96.10
46356;DHT22;32066;49.474;11.106;2023-01-01T11:54:25;16.90;96.10
46356;DHT22;32066;49.474;11.106;2023-01-01T11:56:59;16.90;96.10
46356;DHT22;32066;49.474;11.106;2023-01-01T11:59:39;16.90;96.00
46356;DHT22;32066;49.474;11.106;2023-01-01T12:02:13;17.00;96.00
46356;DHT22;32066;49.474;11.106;2023-01-01T12:04:45;17.00;96.00
46356;DHT22;32066;49.474;11.106;2023-01-01T12:07:16;17.00;96.00
46356;DHT22;32066;49.474;11.106;2023-01-01T12:09:47;17.00;95.90
46356;DHT22;32066;49.474;11.106;2023-01-01T12:12:22;17.00;95.90
46356;DHT22;32066;49.474;11.106;2023-01-01T12:14:55;17.10;95.90
46356;DHT22;32066;49.474;11.106;2023-01-01T12:17:27;17.10;95.90
46356;DHT22;32066;49.474;11.106;2023-01-01T12:20:00;17.10;95.90
46356;DHT22;32066;49.474;11.106;2023-01-01T12:22:30;17.10;95.80
46356;DHT22;32066;49.474;11.106;2023-01-01T12:24:57;17.10;95.80
46356;DHT22;32066;49.474;11.106;2023-01-01T12:27:37;17.20;95.70
46356;DHT22;32066;49.474;11.106;2023-01-01T12:30:14;17.20;95.70
46356;DHT22;32066;49.474;11.106;2023-01-01T12:38:54;17.30;95.60
46356;DHT22;32066;49.474;11.106;2023-01-01T12:41:32;17.30;95.60
46356;DHT22;32066;49.474;11.106;2023-01-01T12:44:07;17.30;95.70
46356;DHT22;32066;49.474;11.106;2023-01-01T12:46:44;17.40;95.70
46356;DHT22;32066;49.474;11.106;2023-01-01T12:49:42;17.40;95.60
46356;DHT22;32066;49.474;11.106;2023-01-01T12:52:19;17.50;95.70
46356;DHT22;32066;49.474;11.106;2023-01-01T12:58:10;17.50;95.70
46356;DHT22;32066;49.474;11.106;2023-01-01T13:00:42;17.60;95.60
46356;DHT22;32066;49.474;11.106;2023-01-01T13:03:16;17.70;95.70
46356;DHT22;32066;49.474;11.106;2023-01-01T13:05:47;17.60;95.60
46356;DHT22;32066;49.474;11.106;2023-01-01T13:08:15;17.70;95.60
46356;DHT22;32066;49.474;11.106;2023-01-01T13:10:44;17.70;95.70
46356;DHT22;32066;49.474;11.106;2023-01-01T13:13:12;17.60;95.60
46356;DHT22;32066;49.474;11.106;2023-01-01T13:15:48;17.60;95.70
46356;DHT22;32066;49.474;11.106;2023-01-01T13:18:21;17.60;95.70
46356;DHT22;32066;49.474;11.106;2023-01-01T13:20:56;17.60;95.70
46356;DHT22;32066;49.474;11.106;2023-01-01T13:23:52;17.50;95.80
46356;DHT22;32066;49.474;11.106;2023-01-01T13:26:36;17.60;95.70
46356;DHT22;32066;49.474;11.106;2023-01-01T13:29:25;17.60;95.70
46356;DHT22;32066;49.474;11.106;2023-01-01T13:32:03;17.50;95.60
46356;DHT22;32066;49.474;11.106;2023-01-01T13:34:32;17.60;95.40
46356;DHT22;32066;49.474;11.106;2023-01-01T13:40:02;17.50;95.40
46356;DHT22;32066;49.474;11.106;2023-01-01T13:42:43;17.50;95.30
46356;DHT22;32066;49.474;11.106;2023-01-01T13:45:20;17.50;95.40
46356;DHT22;32066;49.474;11.106;2023-01-01T13:48:09;17.50;95.40
46356;DHT22;32066;49.474;11.106;2023-01-01T13:50:46;17.50;95.20
46356;DHT22;32066;49.474;11.106;2023-01-01T13:56:27;17.50;95.00
46356;DHT22;32066;49.474;11.106;2023-01-01T13:59:20;17.40;94.90
46356;DHT22;32066;49.474;11.106;2023-01-01T14:01:57;17.50;95.00
46356;DHT22;32066;49.474;11.106;2023-01-01T14:04:37;17.50;94.70
46356;DHT22;32066;49.474;11.106;2023-01-01T14:07:15;17.50;94.70
46356;DHT22;32066;49.474;11.106;2023-01-01T14:09:43;17.50;94.60
46356;DHT22;32066;49.474;11.106;2023-01-01T14:12:15;17.50;94.70
46356;DHT22;32066;49.474;11.106;2023-01-01T14:14:43;17.50;94.60
46356;DHT22;32066;49.474;11.106;2023-01-01T14:17:12;17.60;94.70
46356;DHT22;32066;49.474;11.106;2023-01-01T14:19:40;17.60;94.70
46356;DHT22;32066;49.474;11.106;2023-01-01T14:22:07;17.70;94.60
46356;DHT22;32066;49.474;11.106;2023-01-01T14:24:39;17.80;94.50
46356;DHT22;32066;49.474;11.106;2023-01-01T14:27:08;17.90;94.40
46356;DHT22;32066;49.474;11.106;2023-01-01T14:29:37;18.00;94.30
46356;DHT22;32066;49.474;11.106;2023-01-01T14:32:12;18.00;94.30
46356;DHT22;32066;49.474;11.106;2023-01-01T14:34:40;18.00;94.20
46356;DHT22;32066;49.474;11.106;2023-01-01T14:37:20;18.10;94.20
46356;DHT22;32066;49.474;11.106;2023-01-01T14:40:04;18.10;94.10
46356;DHT22;32066;49.474;11.106;2023-01-01T14:42:31;18.10;94.10
46356;DHT22;32066;49.474;11.106;2023-01-01T14:45:02;18.20;94.00
46356;DHT22;32066;49.474;11.106;2023-01-01T14:47:31;18.20;93.80
46356;DHT22;32066;49.474;11.106;2023-01-01T14:50:02;18.20;93.80
46356;DHT22;32066;49.474;11.106;2023-01-01T14:52:29;18.20;93.70
46356;DHT22;32066;49.474;11.106;2023-01-01T14:54:58;18.10;93.90
46356;DHT22;32066;49.474;11.106;2023-01-01T14:57:28;18.00;93.90
46356;DHT22;32066;49.474;11.106;2023-01-01T14:59:55;17.90;93.80
46356;DHT22;32066;49.474;11.106;2023-01-01T15:02:25;17.90;93.80
46356;DHT22;32066;49.474;11.106;2023-01-01T15:04:53;17.80;93.90
46356;DHT22;32066;49.474;11.106;2023-01-01T15:07:22;17.70;94.00
46356;DHT22;32066;49.474;11.106;2023-01-01T15:09:50;17.60;93.90
46356;DHT22;32066;49.474;11.106;2023-01-01T15:12:18;17.60;94.10
46356;DHT22;32066;49.474;11.106;2023-01-01T15:14:46;17.50;94.10
46356;DHT22;32066;49.474;11.106;2023-01-01T15:17:15;17.50;94.20
46356;DHT22;32066;49.474;11.106;2023-01-01T15:19:45;17.40;94.20
46356;DHT22;32066;49.474;11.106;2023-01-01T15:22:17;17.40;94.40
46356;DHT22;32066;49.474;11.106;2023-01-01T15:24:45;17.30;94.40
46356;DHT22;32066;49.474;11.106;2023-01-01T15:27:20;17.30;94.50
46356;DHT22;32066;49.474;11.106;2023-01-01T15:29:48;17.20;94.40
46356;DHT22;32066;49.474;11.106;2023-01-01T15:32:23;17.10;94.50
46356;DHT22;32066;49.474;11.106;2023-01-01T15:34:53;17.10;94.60
46356;DHT22;32066;49.474;11.106;2023-01-01T15:37:22;17.00;94.70
46356;DHT22;32066;49.474;11.106;2023-01-01T15:39:55;16.90;94.10
46356;DHT22;32066;49.474;11.106;2023-01-01T15:42:33;16.70;93.90
46356;DHT22;32066;49.474;11.106;2023-01-01T15:45:21;16.50;94.10
46356;DHT22;32066;49.474;11.106;2023-01-01T15:47:49;16.30;94.20
46356;DHT22;32066;49.474;11.106;2023-01-01T15:50:24;16.20;94.30